createdAt,value
2018-09-05T00:01:09.908Z,20.83
2018-09-05T00:06:13.217Z,20.85
2018-09-05T00:11:16.627Z,20.82
2018-09-05T00:16:20.741Z,20.68
2018-09-05T00:21:24.094Z,20.45
2018-09-05T00:26:27.550Z,20.30
2018-09-05T00:31:30.566Z,20.18
2018-09-05T00:36:33.592Z,20.02
2018-09-05T00:41:36.654Z,19.94
2018-09-05T00:46:39.733Z,19.89
2018-09-05T00:51:42.995Z,19.84
2018-09-05T00:56:46.247Z,19.63
2018-09-05T01:01:50.196Z,19.58
2018-09-05T01:06:53.763Z,19.54
2018-09-05T01:11:57.180Z,19.52
2018-09-05T01:17:00.389Z,19.62
2018-09-05T01:22:03.550Z,19.56
2018-09-05T01:27:07.487Z,19.53
2018-09-05T01:32:11.236Z,19.55
2018-09-05T01:37:14.506Z,19.62
2018-09-05T01:42:17.852Z,19.59
2018-09-05T01:47:21.756Z,19.51
2018-09-05T01:52:25.304Z,19.31
2018-09-05T01:57:28.458Z,19.12
2018-09-05T02:02:31.530Z,19.03
2018-09-05T02:07:34.567Z,19.10
2018-09-05T02:12:37.606Z,19.18
2018-09-05T02:17:40.612Z,19.20
2018-09-05T02:22:43.647Z,19.25
2018-09-05T02:27:46.754Z,19.23
2018-09-05T02:32:50.664Z,19.26
2018-09-05T02:37:54.061Z,19.23
2018-09-05T02:42:57.250Z,18.98
2018-09-05T02:48:00.278Z,18.98
2018-09-05T02:53:03.330Z,18.92
2018-09-05T02:58:06.504Z,18.86
2018-09-05T03:03:09.510Z,18.79
2018-09-05T03:08:13.390Z,18.57
2018-09-05T03:13:16.474Z,18.48
2018-09-05T03:18:21.277Z,18.37
2018-09-05T03:23:24.626Z,18.29
2018-09-05T03:28:27.875Z,18.24
2018-09-05T03:33:31.218Z,18.34
2018-09-05T03:38:36.210Z,18.41
2018-09-05T03:43:39.222Z,18.42
2018-09-05T03:48:42.279Z,18.24
2018-09-05T03:53:45.642Z,18.14
2018-09-05T03:58:49.453Z,18.02
2018-09-05T04:03:53.181Z,18.12
2018-09-05T04:08:57.049Z,18.20
2018-09-05T04:14:00.598Z,18.19
2018-09-05T04:19:03.910Z,18.15
2018-09-05T04:24:06.940Z,17.98
2018-09-05T04:29:09.939Z,17.97
2018-09-05T04:34:13.178Z,17.93
2018-09-05T04:39:16.253Z,17.87
2018-09-05T04:44:25.512Z,17.84
2018-09-05T04:49:29.663Z,17.70
2018-09-05T04:54:32.737Z,17.51
2018-09-05T04:59:35.883Z,17.45
2018-09-05T05:04:38.953Z,17.43
2018-09-05T05:09:42.155Z,17.60
2018-09-05T05:14:48.308Z,17.83
2018-09-05T05:19:51.461Z,18.04
2018-09-05T05:24:54.520Z,18.06
2018-09-05T05:29:57.634Z,18.07
2018-09-05T05:35:00.683Z,18.19
2018-09-05T05:40:06.843Z,18.29
2018-09-05T05:45:10.945Z,18.42
2018-09-05T05:50:14.861Z,18.49
2018-09-05T05:55:17.943Z,18.59
2018-09-05T06:00:23.233Z,18.74
2018-09-05T06:05:26.297Z,18.87
2018-09-05T06:10:29.307Z,19.01
2018-09-05T06:15:32.367Z,19.13
2018-09-05T06:20:37.613Z,19.23
2018-09-05T06:25:42.400Z,19.29
2018-09-05T06:30:45.864Z,19.61
2018-09-05T06:35:48.824Z,19.82
2018-09-05T06:40:51.866Z,20.02
2018-09-05T06:45:55.354Z,20.09
2018-09-05T06:51:02.454Z,20.16
2018-09-05T06:56:08.167Z,20.14
2018-09-05T07:01:12.361Z,20.48
2018-09-05T07:06:15.992Z,20.63
2018-09-05T07:11:19.103Z,20.68
2018-09-05T07:16:23.031Z,20.77
2018-09-05T07:21:26.212Z,20.79
2018-09-05T07:26:29.225Z,20.86
2018-09-05T07:31:32.230Z,20.99
2018-09-05T07:36:35.255Z,21.20
2018-09-05T07:41:39.313Z,21.51
2018-09-05T07:46:42.454Z,21.81
2018-09-05T07:51:48.985Z,21.99
2018-09-05T07:56:55.200Z,21.66
2018-09-05T08:01:58.960Z,21.86
2018-09-05T08:07:02.174Z,21.96
2018-09-05T08:12:05.886Z,22.11
2018-09-05T08:17:09.305Z,22.28
2018-09-05T08:22:12.336Z,22.37
2018-09-05T08:27:19.915Z,22.51
2018-09-05T08:32:24.551Z,22.87
2018-09-05T08:37:29.037Z,22.85
2018-09-05T08:42:34.761Z,23.18
2018-09-05T08:47:39.806Z,23.48
2018-09-05T08:52:42.785Z,23.60
2018-09-05T08:57:45.872Z,23.73
2018-09-05T09:02:49.045Z,23.43
2018-09-05T09:07:52.222Z,23.46
2018-09-05T09:12:55.441Z,23.69
2018-09-05T09:18:01.212Z,23.52
2018-09-05T09:23:05.102Z,23.60
2018-09-05T09:28:09.717Z,23.54
2018-09-05T09:33:12.746Z,23.59
2018-09-05T09:38:15.883Z,23.64
2018-09-05T09:43:18.961Z,23.82
2018-09-05T09:48:22.207Z,23.97
2018-09-05T09:53:25.618Z,24.00
2018-09-05T09:58:31.275Z,23.84
2018-09-05T10:03:41.077Z,23.90
2018-09-05T10:09:50.208Z,23.99
2018-09-05T10:17:01.347Z,24.02
2018-09-05T10:22:05.467Z,23.99
2018-09-05T10:27:09.221Z,24.15
2018-09-05T10:32:12.994Z,24.39
2018-09-05T10:37:17.390Z,24.43
2018-09-05T10:42:21.451Z,24.48
2018-09-05T10:47:25.823Z,24.58
2018-09-05T10:52:30.160Z,24.63
2018-09-05T10:57:35.545Z,24.65
2018-09-05T11:02:39.231Z,24.66
2018-09-05T11:07:42.869Z,25.08
2018-09-05T11:12:47.458Z,25.21
2018-09-05T11:17:51.666Z,25.32
2018-09-05T11:22:57.407Z,25.66
2018-09-05T11:28:04.675Z,25.58
2018-09-05T11:33:09.006Z,25.51
2018-09-05T11:38:13.218Z,25.80
2018-09-05T11:43:17.706Z,26.03
2018-09-05T11:48:21.392Z,26.11
2018-09-05T11:53:25.448Z,26.16
2018-09-05T11:58:28.837Z,26.16
2018-09-05T12:03:32.362Z,26.22
2018-09-05T12:08:39.704Z,26.10
2018-09-05T12:13:44.275Z,26.20
2018-09-05T12:18:48.463Z,25.94
2018-09-05T12:23:51.533Z,26.02
2018-09-05T12:28:54.599Z,26.25
2018-09-05T12:33:57.705Z,26.27
2018-09-05T12:39:00.872Z,26.40
2018-09-05T12:44:07.015Z,26.51
2018-09-05T12:49:14.694Z,26.80
2018-09-05T12:54:18.411Z,26.80
2018-09-05T12:59:21.540Z,26.76
2018-09-05T13:04:24.696Z,27.03
2018-09-05T13:09:27.750Z,26.88
2018-09-05T13:14:30.762Z,27.13
2018-09-05T13:19:35.337Z,27.03
2018-09-05T13:24:41.004Z,27.27
2018-09-05T13:29:45.067Z,27.33
2018-09-05T13:34:48.660Z,27.56
2018-09-05T13:39:51.763Z,27.48
2018-09-05T13:44:54.834Z,27.58
2018-09-05T13:49:58.020Z,27.42
2018-09-05T13:55:01.051Z,27.24
2018-09-05T14:00:04.921Z,27.50
2018-09-05T14:05:11.030Z,27.62
2018-09-05T14:10:16.547Z,27.60
2018-09-05T14:15:20.623Z,27.72
2018-09-05T14:20:23.753Z,27.65
2018-09-05T14:25:26.834Z,27.94
2018-09-05T14:30:29.930Z,27.63
2018-09-05T14:35:34.742Z,27.54
2018-09-05T14:40:40.232Z,27.80
2018-09-05T14:45:44.478Z,27.95
2018-09-05T14:50:48.388Z,27.95
2018-09-05T14:55:51.443Z,27.74
2018-09-05T15:00:54.518Z,27.88
2018-09-05T15:05:57.630Z,28.16
2018-09-05T15:11:08.797Z,28.51
2018-09-05T15:16:15.115Z,28.38
2018-09-05T15:22:04.271Z,28.42
2018-09-05T15:27:08.691Z,28.80
2018-09-05T15:32:12.613Z,28.59
2018-09-05T15:37:16.423Z,28.24
2018-09-05T15:42:20.061Z,28.41
2018-09-05T15:47:23.099Z,28.49
2018-09-05T15:52:26.214Z,28.40
2018-09-05T15:57:29.342Z,28.34
2018-09-05T16:02:32.994Z,28.15
2018-09-05T16:07:36.565Z,27.93
2018-09-05T16:12:42.024Z,28.00
2018-09-05T16:17:46.692Z,27.76
2018-09-05T16:22:50.354Z,27.83
2018-09-05T16:27:53.431Z,27.84
2018-09-05T16:32:56.508Z,27.48
2018-09-05T16:37:59.732Z,27.31
2018-09-05T16:43:05.396Z,27.29
2018-09-05T16:48:12.451Z,27.25
2018-09-05T16:53:17.430Z,26.87
2018-09-05T16:58:20.828Z,26.77
2018-09-05T17:03:23.888Z,26.73
2018-09-05T17:08:27.754Z,26.60
2018-09-05T17:13:30.891Z,26.53
2018-09-05T17:18:33.978Z,26.35
2018-09-05T17:23:37.487Z,26.21
2018-09-05T17:28:42.939Z,26.12
2018-09-05T17:33:46.985Z,25.97
2018-09-05T17:38:50.134Z,25.89
2018-09-05T17:43:53.178Z,25.75
2018-09-05T17:48:56.238Z,25.61
2018-09-05T17:53:59.441Z,25.43
2018-09-05T17:59:02.644Z,25.31
2018-09-05T18:04:05.749Z,25.22
2018-09-05T18:09:09.902Z,25.12
2018-09-05T18:14:14.228Z,24.96
2018-09-05T18:19:18.461Z,24.80
2018-09-05T18:24:22.039Z,24.73
2018-09-05T18:29:25.390Z,24.62
2018-09-05T18:34:28.430Z,24.38
2018-09-05T18:39:31.732Z,24.23
2018-09-05T18:44:34.742Z,24.13
2018-09-05T18:49:37.760Z,24.00
2018-09-05T18:54:40.960Z,23.92
2018-09-05T18:59:45.878Z,23.82
2018-09-05T19:04:49.577Z,23.78
2018-09-05T19:09:53.075Z,23.73
2018-09-05T19:14:56.108Z,23.66
2018-09-05T19:19:59.134Z,23.57
2018-09-05T19:25:02.232Z,23.43
2018-09-05T19:30:05.615Z,23.33
2018-09-05T19:35:08.986Z,23.28
2018-09-05T19:40:13.047Z,23.16
2018-09-05T19:45:17.247Z,23.12
2018-09-05T19:50:20.915Z,23.06
2018-09-05T19:55:23.915Z,22.99
2018-09-05T20:00:28.373Z,22.97
2018-09-05T20:05:31.461Z,22.94
2018-09-05T20:10:34.877Z,22.85
2018-09-05T20:15:37.926Z,22.74
2018-09-05T20:20:41.058Z,22.64
2018-09-05T20:25:45.163Z,22.61
2018-09-05T20:30:48.566Z,22.52
2018-09-05T20:35:51.841Z,22.44
2018-09-05T20:40:54.942Z,22.40
2018-09-05T20:45:58.001Z,22.35
2018-09-05T20:51:01.030Z,22.34
2018-09-05T20:56:04.066Z,22.27
2018-09-05T21:01:07.539Z,22.11
2018-09-05T21:06:10.798Z,22.05
2018-09-05T21:11:15.703Z,21.96
2018-09-05T21:16:19.529Z,21.75
2018-09-05T21:21:23.666Z,21.58
2018-09-05T21:26:26.686Z,21.60
2018-09-05T21:31:29.703Z,21.57
2018-09-05T21:36:32.702Z,21.61
2018-09-05T21:41:35.754Z,21.49
2018-09-05T21:46:39.395Z,21.34
2018-09-05T21:51:44.035Z,21.27
2018-09-05T21:56:47.651Z,21.28
2018-09-05T22:01:51.048Z,21.18
2018-09-05T22:06:54.186Z,21.26
2018-09-05T22:11:57.189Z,21.27
2018-09-05T22:17:00.262Z,21.36
2018-09-05T22:22:03.289Z,21.35
2018-09-05T22:27:06.592Z,21.29
2018-09-05T22:32:10.024Z,21.23
2018-09-05T22:37:15.278Z,21.23
2018-09-05T22:42:18.651Z,21.22
2018-09-05T22:48:38.997Z,21.17
2018-09-05T22:54:10.376Z,20.98
2018-09-05T23:00:40.730Z,20.96
2018-09-05T23:08:57.240Z,20.89
2018-09-05T23:14:19.495Z,20.70
2018-09-05T23:19:45.954Z,20.88
2018-09-05T23:24:49.666Z,20.81
2018-09-05T23:29:53.014Z,20.77
2018-09-05T23:34:56.059Z,20.80
2018-09-05T23:39:59.087Z,20.74
2018-09-05T23:45:02.138Z,20.68
2018-09-05T23:50:05.737Z,20.70
2018-09-05T23:55:08.927Z,20.57
